Time;durP1;ratioP1;P1;durP2;ratioP2;P2;SDS_P1;SDS_P2;PMS_P1;PMS_P2;Temp;Humidity;BMP_temperature;BMP_pressure;BME280_temperature;BME280_humidity;BME280_pressure;Samples;Min_cycle;Max_cycle;Signal;HPM_P1;HPM_P2
2021/08/08 00:01:45;;;;;;;;;;;;;;;22.43;62.39;97234.79;1802689;79;26026;-88
2021/08/08 00:04:12;;;;;;;;;;;;;;;22.45;62.30;97232.73;1799819;79;24355;-87
2021/08/08 00:06:39;;;;;;;;;;;;;;;22.47;62.22;97229.88;1796718;79;20306;-87
2021/08/08 00:09:09;;;;;;;;;;;;;;;22.53;62.06;97238.33;1770091;79;24292;-87
2021/08/08 00:11:35;;;;;;;;;;;;;;;22.60;61.97;97238.31;1794477;79;22044;-86
2021/08/08 00:14:01;;;;;;;;;;;;;;;22.64;61.87;97238.21;1746584;81;25965;-86
2021/08/08 00:16:31;;;;;;;;;;;;;;;22.65;61.83;97242.49;1750113;80;20239;-87
2021/08/08 00:18:58;;;;;;;;;;;;;;;22.65;61.77;97236.64;1763145;80;20222;-86
2021/08/08 00:21:24;;;;;;;;;;;;;;;22.62;61.73;97246.93;1761912;81;24805;-86
2021/08/08 00:23:50;;;;;;;;;;;;;;;22.60;61.71;97246.31;1759194;81;22164;-86
2021/08/08 00:26:16;;;;;;;;;;;;;;;22.57;61.71;97239.57;1761194;81;26220;-87
2021/08/08 00:28:43;;;;;;;;;;;;;;;22.55;61.66;97224.28;1764117;81;24438;-87
2021/08/08 00:31:16;;;;;;;;;;;;;;;22.63;61.61;97236.57;1762405;81;20265;-87
2021/08/08 00:33:42;;;;;;;;;;;;;;;22.65;61.61;97231.31;1756922;81;25644;-87
2021/08/08 00:36:14;;;;;;;;;;;;;;;22.66;61.62;97228.95;1763189;81;22827;-87
2021/08/08 00:38:40;;;;;;;;;;;;;;;22.68;61.65;97230.08;1757621;81;26234;-87
2021/08/08 00:41:09;;;;;;;;;;;;;;;22.72;61.63;97236.14;1752753;81;24435;-87
2021/08/08 00:43:35;;;;;;;;;;;;;;;22.78;61.61;97233.13;1757940;81;20467;-88
2021/08/08 00:46:01;;;;;;;;;;;;;;;22.82;61.55;97244.50;1743711;81;20240;-88
2021/08/08 00:48:34;;;;;;;;;;;;;;;22.88;61.51;97256.16;1757787;81;20436;-88
2021/08/08 00:51:04;;;;;;;;;;;;;;;22.94;61.46;97251.31;1759570;79;25944;-87
2021/08/08 00:53:30;;;;;;;;;;;;;;;23.00;61.42;97248.30;1760759;81;24520;-88
2021/08/08 00:55:58;;;;;;;;;;;;;;;23.01;61.40;97249.44;1757236;79;20547;-87
2021/08/08 00:58:30;;;;;;;;;;;;;;;23.02;61.37;97255.59;1750231;79;24740;-87
2021/08/08 01:00:58;;;;;;;;;;;;;;;23.04;61.34;97249.50;1755314;79;21976;-87
2021/08/08 01:03:30;;;;;;;;;;;;;;;23.03;61.35;97254.53;1760135;79;26838;-87
2021/08/08 01:06:01;;;;;;;;;;;;;;;23.00;61.32;97259.80;1765051;81;24441;-86
2021/08/08 01:08:29;;;;;;;;;;;;;;;22.98;61.34;97257.84;1762970;79;20161;-86
2021/08/08 01:10:56;;;;;;;;;;;;;;;22.98;61.34;97261.03;1756820;79;24723;-87
2021/08/08 01:13:22;;;;;;;;;;;;;;;23.00;61.33;97268.31;1776941;78;22057;-87
2021/08/08 01:15:49;;;;;;;;;;;;;;;22.99;61.36;97265.34;1777365;79;26111;-87
2021/08/08 01:18:22;;;;;;;;;;;;;;;22.96;61.37;97264.45;1779788;80;25563;-87
2021/08/08 01:20:54;;;;;;;;;;;;;;;22.93;61.38;97263.83;1804054;77;20204;-87
2021/08/08 01:23:25;;;;;;;;;;;;;;;22.99;61.40;97265.34;1805897;78;21511;-87
2021/08/08 01:25:51;;;;;;;;;;;;;;;22.96;61.43;97266.61;1771332;79;22000;-87
2021/08/08 01:28:20;;;;;;;;;;;;;;;22.90;61.47;97274.95;1805357;78;26259;-87
2021/08/08 01:30:47;;;;;;;;;;;;;;;22.89;61.49;97275.97;1803667;78;24399;-86
2021/08/08 01:33:15;;;;;;;;;;;;;;;22.91;61.57;97281.89;1804854;78;20309;-87
2021/08/08 01:35:42;;;;;;;;;;;;;;;22.91;61.59;97291.23;1803231;78;24931;-86
2021/08/08 01:38:08;;;;;;;;;;;;;;;22.93;61.62;97293.19;1799648;78;22055;-87
2021/08/08 01:40:36;;;;;;;;;;;;;;;22.91;61.66;97297.11;1794667;79;26880;-87
2021/08/08 01:43:05;;;;;;;;;;;;;;;22.89;61.68;97303.16;1773918;79;24498;-87
2021/08/08 01:45:33;;;;;;;;;;;;;;;22.88;61.71;97307.68;1789347;78;20326;-87
2021/08/08 01:48:01;;;;;;;;;;;;;;;22.89;61.76;97313.33;1801801;78;24884;-88
2021/08/08 01:50:31;;;;;;;;;;;;;;;22.88;61.82;97319.69;1803595;78;22019;-85
2021/08/08 01:52:55;;;;;;;;;;;;;;;22.90;61.85;97312.81;1805136;78;25995;-85
2021/08/08 01:55:21;;;;;;;;;;;;;;;22.92;61.89;97324.07;1806886;78;20246;-86
2021/08/08 01:57:48;;;;;;;;;;;;;;;22.91;61.97;97317.91;1810088;78;20221;-85
2021/08/08 02:00:19;;;;;;;;;;;;;;;22.88;62.08;97330.36;1814091;77;20762;-85
2021/08/08 02:02:50;;;;;;;;;;;;;;;22.85;62.22;97354.81;1813259;77;21990;-85
2021/08/08 02:05:17;;;;;;;;;;;;;;;22.79;62.41;97362.83;1816092;77;26225;-85
2021/08/08 02:07:43;;;;;;;;;;;;;;;22.69;62.73;97364.58;1775411;78;25454;-88
2021/08/08 02:10:09;;;;;;;;;;;;;;;22.56;63.07;97383.27;1809286;78;20242;-88
2021/08/08 02:12:35;;;;;;;;;;;;;;;22.41;63.43;97390.69;1811899;78;24611;-87
2021/08/08 02:15:09;;;;;;;;;;;;;;;22.28;63.78;97400.02;1810562;77;21850;-88
2021/08/08 02:17:36;;;;;;;;;;;;;;;22.15;64.11;97412.03;1800198;77;26013;-87
2021/08/08 02:20:03;;;;;;;;;;;;;;;22.00;64.45;97419.69;1802639;79;24512;-87
2021/08/08 02:22:29;;;;;;;;;;;;;;;21.89;64.73;97418.10;1809055;77;20309;-87
2021/08/08 02:24:55;;;;;;;;;;;;;;;21.81;64.95;97431.63;1802988;78;24803;-87
2021/08/08 02:27:21;;;;;;;;;;;;;;;21.73;65.18;97443.28;1801748;78;20294;-87
2021/08/08 02:29:47;;;;;;;;;;;;;;;21.63;65.36;97448.17;1775154;79;21134;-88
2021/08/08 02:32:25;;;;;;;;;;;;;;;21.53;65.48;97466.38;1772393;79;24435;-88
2021/08/08 02:34:57;;;;;;;;;;;;;;;21.45;65.58;97482.52;1760391;79;20212;-88
2021/08/08 02:37:26;;;;;;;;;;;;;;;21.37;65.61;97488.02;1752592;80;24824;-88
2021/08/08 02:39:56;;;;;;;;;;;;;;;21.24;65.56;97501.57;1792834;79;22004;-88
2021/08/08 02:42:26;;;;;;;;;;;;;;;21.15;65.53;97501.94;1770422;79;26685;-88
2021/08/08 02:44:51;;;;;;;;;;;;;;;21.07;65.48;97512.19;1792828;78;24506;-88
2021/08/08 02:47:20;;;;;;;;;;;;;;;20.99;65.42;97512.35;1776170;79;20304;-88
2021/08/08 02:49:45;;;;;;;;;;;;;;;20.92;65.36;97519.97;1772736;79;24919;-88
2021/08/08 02:52:11;;;;;;;;;;;;;;;20.83;65.34;97519.30;1801081;78;21470;-87
2021/08/08 02:54:38;;;;;;;;;;;;;;;20.76;65.31;97531.72;1762074;79;25968;-87
2021/08/08 02:57:12;;;;;;;;;;;;;;;20.72;65.32;97542.44;1796158;77;24525;-87
2021/08/08 02:59:42;;;;;;;;;;;;;;;20.67;65.35;97543.53;1754987;79;20229;-87
2021/08/08 03:02:13;;;;;;;;;;;;;;;20.64;65.37;97555.86;1798232;79;24726;-88
2021/08/08 03:04:36;;;;;;;;;;;;;;;20.58;65.39;97560.11;1766321;79;22006;-87
2021/08/08 03:07:12;;;;;;;;;;;;;;;20.52;65.41;97568.02;1776632;79;25918;-87
2021/08/08 03:09:44;;;;;;;;;;;;;;;20.50;65.47;97574.05;1771890;79;24561;-87
2021/08/08 03:12:10;;;;;;;;;;;;;;;20.43;65.48;97576.63;1773742;79;20758;-87
2021/08/08 03:14:36;;;;;;;;;;;;;;;20.35;65.45;97578.90;1757629;79;20255;-87
2021/08/08 03:17:05;;;;;;;;;;;;;;;20.26;65.40;97595.13;1780584;79;22018;-87
2021/08/08 03:19:31;;;;;;;;;;;;;;;20.16;65.39;97600.75;1775743;79;25961;-88
2021/08/08 03:21:57;;;;;;;;;;;;;;;20.07;65.41;97607.70;1775784;80;20344;-87
2021/08/08 03:24:23;;;;;;;;;;;;;;;19.94;65.48;97602.55;1766119;79;21074;-87
2021/08/08 03:26:51;;;;;;;;;;;;;;;19.79;65.55;97624.33;1755169;80;20236;-87
2021/08/08 03:29:20;;;;;;;;;;;;;;;19.67;65.69;97639.06;1768143;80;22074;-87
2021/08/08 03:31:46;;;;;;;;;;;;;;;19.51;65.88;97638.75;1769900;80;26641;-88
2021/08/08 03:34:12;;;;;;;;;;;;;;;19.38;66.06;97646.47;1765612;79;24622;-87
2021/08/08 03:36:38;;;;;;;;;;;;;;;19.27;66.25;97643.44;1765956;80;20651;-87
2021/08/08 03:39:07;;;;;;;;;;;;;;;19.18;66.48;97648.84;1766305;80;24896;-87
2021/08/08 03:41:33;;;;;;;;;;;;;;;19.09;66.70;97661.03;1764751;80;20425;-87
2021/08/08 03:43:59;;;;;;;;;;;;;;;19.01;66.93;97668.55;1734841;81;25932;-88
2021/08/08 03:46:25;;;;;;;;;;;;;;;18.94;67.18;97666.77;1782883;79;20249;-88
2021/08/08 03:48:51;;;;;;;;;;;;;;;18.87;67.47;97671.16;1768302;79;20267;-87
2021/08/08 03:51:23;;;;;;;;;;;;;;;18.77;67.78;97665.58;1775405;79;24625;-88
2021/08/08 03:53:49;;;;;;;;;;;;;;;18.70;68.10;97669.13;1781971;78;22800;-88
2021/08/08 03:56:17;;;;;;;;;;;;;;;18.64;68.46;97679.11;1763350;80;25874;-88
2021/08/08 03:58:46;;;;;;;;;;;;;;;18.57;68.76;97677.66;1756706;81;24492;-89
2021/08/08 04:01:18;;;;;;;;;;;;;;;18.51;69.06;97677.00;1753715;81;20213;-88
2021/08/08 04:03:44;;;;;;;;;;;;;;;18.42;69.37;97678.06;1749364;81;24740;-88
2021/08/08 04:06:10;;;;;;;;;;;;;;;18.36;69.62;97679.58;1749393;79;20313;-89
2021/08/08 04:08:45;;;;;;;;;;;;;;;18.33;69.91;97682.56;1732636;82;21001;-89
2021/08/08 04:11:14;;;;;;;;;;;;;;;18.30;70.18;97690.04;1773722;79;24653;-89
2021/08/08 04:13:40;;;;;;;;;;;;;;;18.25;70.45;97681.30;1775751;79;20508;-88
2021/08/08 04:16:06;;;;;;;;;;;;;;;18.24;70.71;97690.23;1794510;79;25445;-89
2021/08/08 04:18:34;;;;;;;;;;;;;;;18.24;70.93;97696.03;1774040;80;35465;-89
2021/08/08 04:21:00;;;;;;;;;;;;;;;18.20;71.15;97698.20;1801817;79;26041;-89
2021/08/08 04:23:26;;;;;;;;;;;;;;;18.22;71.34;97699.37;1768007;81;25339;-88
2021/08/08 04:25:52;;;;;;;;;;;;;;;18.24;71.56;97691.56;1800704;79;20161;-89
2021/08/08 04:28:20;;;;;;;;;;;;;;;18.29;71.75;97709.58;1762259;80;25059;-89
2021/08/08 04:30:52;;;;;;;;;;;;;;;18.30;71.92;97709.91;1756961;80;21410;-88
2021/08/08 04:36:06;;;;;;;;;;;;;;;18.34;72.24;97729.25;1770867;80;24510;-89
2021/08/08 04:38:32;;;;;;;;;;;;;;;18.36;72.38;97732.56;1770235;80;20270;-89
2021/08/08 04:41:00;;;;;;;;;;;;;;;18.38;72.52;97736.38;1791764;79;25126;-89
2021/08/08 04:43:27;;;;;;;;;;;;;;;18.40;72.66;97731.21;1802571;79;22868;-89
2021/08/08 04:45:53;;;;;;;;;;;;;;;18.48;72.79;97734.83;1764663;80;21172;-89
2021/08/08 04:48:26;;;;;;;;;;;;;;;18.56;72.95;97738.28;1790468;80;25216;-89
2021/08/08 04:50:54;;;;;;;;;;;;;;;18.61;73.06;97743.88;1787545;79;20298;-89
2021/08/08 04:53:26;;;;;;;;;;;;;;;18.64;73.15;97738.25;1799219;79;24774;-89
2021/08/08 04:55:55;;;;;;;;;;;;;;;18.60;73.22;97737.45;1771741;80;21955;-89
2021/08/08 04:58:21;;;;;;;;;;;;;;;18.53;73.27;97739.94;1778469;79;26860;-88
2021/08/08 05:00:53;;;;;;;;;;;;;;;18.53;73.34;97740.43;1802068;79;24424;-89
2021/08/08 05:03:19;;;;;;;;;;;;;;;18.52;73.43;97736.95;1814668;78;20261;-89
2021/08/08 05:05:54;;;;;;;;;;;;;;;18.53;73.54;97747.89;1814547;78;24778;-90
2021/08/08 05:08:32;;;;;;;;;;;;;;;18.54;73.62;97760.17;1805794;79;22000;-90
2021/08/08 05:11:12;;;;;;;;;;;;;;;18.52;73.72;97767.42;1805444;79;25960;-90
2021/08/08 05:13:38;;;;;;;;;;;;;;;18.52;73.78;97771.41;1801044;79;24421;-89
2021/08/08 05:16:04;;;;;;;;;;;;;;;18.55;73.86;97780.34;1770933;78;20813;-89
2021/08/08 05:18:30;;;;;;;;;;;;;;;18.59;73.96;97785.66;1806830;77;24807;-89
2021/08/08 05:20:58;;;;;;;;;;;;;;;18.62;74.04;97781.81;1810289;78;21928;-89
2021/08/08 05:23:24;;;;;;;;;;;;;;;18.64;74.13;97781.16;1769565;79;25992;-89
2021/08/08 05:25:56;;;;;;;;;;;;;;;18.67;74.20;97781.62;1769022;79;24629;-88
2021/08/08 05:28:18;;;;;;;;;;;;;;;18.68;74.29;97799.67;1765099;80;20465;-88
2021/08/08 05:30:45;;;;;;;;;;;;;;;18.68;74.34;97808.95;1774267;78;20251;-88
2021/08/08 05:33:11;;;;;;;;;;;;;;;18.68;74.42;97806.30;1816469;77;22043;-89
2021/08/08 05:35:37;;;;;;;;;;;;;;;18.70;74.48;97815.75;1806176;78;21010;-88
2021/08/08 05:38:03;;;;;;;;;;;;;;;18.66;74.53;97824.19;1765187;79;24305;-88
2021/08/08 05:40:29;;;;;;;;;;;;;;;18.60;74.57;97831.54;1766352;80;20428;-88
2021/08/08 05:42:55;;;;;;;;;;;;;;;18.56;74.62;97835.01;1803765;78;24946;-88
2021/08/08 05:45:22;;;;;;;;;;;;;;;18.55;74.69;97836.00;1802442;78;21968;-88
2021/08/08 05:47:48;;;;;;;;;;;;;;;18.54;74.74;97836.16;1765890;79;26021;-88
2021/08/08 05:50:20;;;;;;;;;;;;;;;18.56;74.81;97846.94;1802760;79;24393;-88
2021/08/08 05:52:47;;;;;;;;;;;;;;;18.55;74.88;97853.23;1798385;78;20474;-88
2021/08/08 05:55:13;;;;;;;;;;;;;;;18.53;74.94;97853.88;1779176;78;24806;-88
2021/08/08 05:57:39;;;;;;;;;;;;;;;18.52;74.97;97854.05;1768671;80;22023;-89
2021/08/08 06:00:07;;;;;;;;;;;;;;;18.43;75.00;97838.69;1804077;78;21515;-89
2021/08/08 06:02:33;;;;;;;;;;;;;;;18.49;75.06;97856.56;1773018;80;24494;-89
2021/08/08 06:05:02;;;;;;;;;;;;;;;18.44;75.13;97858.86;1811531;78;20391;-89
2021/08/08 06:07:28;;;;;;;;;;;;;;;18.41;75.19;97860.54;1805860;78;24821;-89
2021/08/08 06:09:54;;;;;;;;;;;;;;;18.43;75.28;97858.56;1807767;77;21919;-89
2021/08/08 06:12:20;;;;;;;;;;;;;;;18.43;75.37;97865.68;1799368;77;26059;-89
2021/08/08 06:14:46;;;;;;;;;;;;;;;18.42;75.42;97868.83;1805399;78;20442;-88
2021/08/08 06:17:18;;;;;;;;;;;;;;;18.40;75.49;97872.13;1813273;77;20559;-88
2021/08/08 06:19:44;;;;;;;;;;;;;;;18.39;75.55;97878.42;1809868;77;24769;-89
2021/08/08 06:22:13;;;;;;;;;;;;;;;18.40;75.58;97883.56;1774157;79;22128;-89
2021/08/08 06:24:40;;;;;;;;;;;;;;;18.43;75.65;97882.41;1762601;79;26986;-89
2021/08/08 06:27:06;;;;;;;;;;;;;;;18.48;75.72;97881.89;1798060;78;24382;-88
2021/08/08 06:29:37;;;;;;;;;;;;;;;18.53;75.83;97878.23;1801899;77;20214;-88
2021/08/08 06:32:04;;;;;;;;;;;;;;;18.57;75.90;97883.55;1796808;78;24806;-88
2021/08/08 06:34:30;;;;;;;;;;;;;;;18.62;75.93;97875.91;1798475;79;21963;-88
2021/08/08 06:36:56;;;;;;;;;;;;;;;18.70;76.00;97884.67;1763412;79;21010;-88
2021/08/08 06:39:31;;;;;;;;;;;;;;;18.73;76.01;97873.70;1795225;79;25318;-87
2021/08/08 06:41:57;;;;;;;;;;;;;;;18.81;76.03;97875.52;1796410;78;20344;-88
2021/08/08 06:44:23;;;;;;;;;;;;;;;18.91;76.07;97873.47;1800137;78;24472;-88
2021/08/08 06:46:49;;;;;;;;;;;;;;;19.01;76.12;97874.58;1793826;78;22125;-88
2021/08/08 06:49:15;;;;;;;;;;;;;;;19.04;76.13;97879.52;1798776;79;20969;-87
2021/08/08 06:51:41;;;;;;;;;;;;;;;19.06;76.17;97881.52;1771331;80;24494;-87
2021/08/08 06:54:07;;;;;;;;;;;;;;;19.06;76.17;97876.20;1793386;78;20279;-87
2021/08/08 06:56:33;;;;;;;;;;;;;;;19.16;76.20;97870.17;1756607;79;24723;-87
2021/08/08 06:58:59;;;;;;;;;;;;;;;19.25;76.21;97863.84;1771471;79;22041;-87
2021/08/08 07:01:32;;;;;;;;;;;;;;;19.31;76.19;97874.26;1757969;79;25943;-87
2021/08/08 07:03:59;;;;;;;;;;;;;;;19.38;76.21;97879.16;1767496;79;25113;-87
2021/08/08 07:06:25;;;;;;;;;;;;;;;19.45;76.18;97889.44;1764243;79;20272;-87
2021/08/08 07:08:54;;;;;;;;;;;;;;;19.55;76.20;97887.38;1796495;78;20946;-87
2021/08/08 07:11:23;;;;;;;;;;;;;;;19.64;76.17;97889.78;1804398;77;21984;-87
2021/08/08 07:13:51;;;;;;;;;;;;;;;19.75;76.15;97892.52;1765067;80;25640;-87
2021/08/08 07:16:18;;;;;;;;;;;;;;;19.89;76.12;97893.59;1729881;79;24744;-87
2021/08/08 07:18:45;;;;;;;;;;;;;;;20.00;76.05;97891.84;1738790;81;20219;-87
2021/08/08 07:21:11;;;;;;;;;;;;;;;20.05;75.96;97888.14;1750694;80;20295;-88
2021/08/08 07:23:38;;;;;;;;;;;;;;;20.08;75.83;97887.77;1757230;81;22019;-87
2021/08/08 07:26:06;;;;;;;;;;;;;;;20.13;75.73;97885.92;1766721;80;21098;-87
2021/08/08 07:28:32;;;;;;;;;;;;;;;20.13;75.56;97880.08;1760734;79;24600;-87
2021/08/08 07:30:58;;;;;;;;;;;;;;;20.20;75.47;97877.03;1750091;81;20531;-87
2021/08/08 07:33:25;;;;;;;;;;;;;;;20.32;75.42;97873.45;1745899;81;25610;-87
2021/08/08 07:35:52;;;;;;;;;;;;;;;20.49;75.45;97867.46;1748678;81;21986;-87
2021/08/08 07:38:18;;;;;;;;;;;;;;;20.54;75.29;97855.27;1751635;80;26087;-87
2021/08/08 07:40:44;;;;;;;;;;;;;;;20.59;75.12;97860.03;1765583;80;24464;-87
2021/08/08 07:43:11;;;;;;;;;;;;;;;20.63;74.95;97869.28;1730396;81;20322;-87
2021/08/08 07:45:38;;;;;;;;;;;;;;;20.66;74.83;97876.41;1747873;80;26828;-87
2021/08/08 07:48:04;;;;;;;;;;;;;;;20.72;74.71;97879.66;1745243;80;21890;-87
2021/08/08 07:50:32;;;;;;;;;;;;;;;20.77;74.53;97883.92;1726991;81;22521;-86
2021/08/08 07:52:58;;;;;;;;;;;;;;;20.82;74.35;97884.69;1751130;81;20302;-87
2021/08/08 07:55:24;;;;;;;;;;;;;;;20.90;74.14;97883.24;1750182;80;20312;-87
2021/08/08 07:57:51;;;;;;;;;;;;;;;20.99;74.08;97877.33;1745130;81;24752;-87
2021/08/08 08:00:17;;;;;;;;;;;;;;;21.09;73.98;97888.50;1748634;80;21989;-86
2021/08/08 08:02:43;;;;;;;;;;;;;;;21.25;73.93;97890.47;1725341;80;25806;-85
2021/08/08 08:05:09;;;;;;;;;;;;;;;21.34;73.81;97894.33;1747964;80;24494;-86
2021/08/08 08:07:37;;;;;;;;;;;;;;;21.33;73.63;97901.48;1746073;80;20516;-85
2021/08/08 08:10:06;;;;;;;;;;;;;;;21.29;73.31;97901.55;1744498;80;24239;-85
2021/08/08 08:12:32;;;;;;;;;;;;;;;21.26;73.05;97901.44;1750765;81;21947;-85
2021/08/08 08:14:58;;;;;;;;;;;;;;;21.26;72.86;97914.75;1744110;80;21041;-85
2021/08/08 08:17:30;;;;;;;;;;;;;;;21.23;72.55;97910.28;1781081;79;22581;-86
2021/08/08 08:19:54;;;;;;;;;;;;;;;21.22;72.37;97904.13;1785267;79;20507;-85
2021/08/08 08:22:20;;;;;;;;;;;;;;;21.28;72.23;97910.04;1783386;79;25598;-85
2021/08/08 08:24:46;;;;;;;;;;;;;;;21.37;72.10;97909.95;1774276;78;22040;-85
2021/08/08 08:27:12;;;;;;;;;;;;;;;21.41;71.89;97925.85;1781863;79;21010;-85
2021/08/08 08:29:39;;;;;;;;;;;;;;;21.44;71.72;97932.15;1780025;80;24447;-85
2021/08/08 08:32:09;;;;;;;;;;;;;;;21.48;71.50;97928.09;1785620;79;20616;-85
2021/08/08 08:34:36;;;;;;;;;;;;;;;21.59;71.41;97922.27;1784824;78;24786;-86
2021/08/08 08:37:03;;;;;;;;;;;;;;;21.57;71.13;97914.47;1773843;80;21962;-85
2021/08/08 08:39:32;;;;;;;;;;;;;;;21.61;70.97;97901.58;1783590;80;25965;-87
2021/08/08 08:42:01;;;;;;;;;;;;;;;21.71;70.87;97906.91;1776807;80;24459;-86
2021/08/08 08:44:28;;;;;;;;;;;;;;;21.80;70.70;97912.95;1779742;80;20212;-86
2021/08/08 08:46:59;;;;;;;;;;;;;;;21.84;70.49;97918.20;1767781;80;24807;-87
2021/08/08 08:49:24;;;;;;;;;;;;;;;21.85;70.32;97924.37;1762014;80;21898;-87
2021/08/08 08:52:01;;;;;;;;;;;;;;;21.89;70.16;97929.12;1773593;80;27037;-87
2021/08/08 08:54:33;;;;;;;;;;;;;;;21.95;70.05;97927.56;1786707;80;24373;-87
2021/08/08 08:57:00;;;;;;;;;;;;;;;21.98;69.85;97925.33;1779894;78;20307;-87
2021/08/08 08:59:27;;;;;;;;;;;;;;;22.01;69.69;97924.96;1784278;80;24930;-87
2021/08/08 09:01:54;;;;;;;;;;;;;;;22.07;69.59;97930.03;1796984;78;22174;-87
2021/08/08 09:04:20;;;;;;;;;;;;;;;22.13;69.49;97940.44;1792313;78;26694;-87
2021/08/08 09:06:46;;;;;;;;;;;;;;;22.18;69.30;97947.34;1797805;79;20233;-86
2021/08/08 09:09:12;;;;;;;;;;;;;;;22.24;69.18;97945.25;1771809;80;20835;-87
2021/08/08 09:11:40;;;;;;;;;;;;;;;22.20;68.88;97955.48;1803937;78;24903;-87
2021/08/08 09:14:08;;;;;;;;;;;;;;;22.24;68.68;97957.24;1771183;78;21954;-87
2021/08/08 09:16:41;;;;;;;;;;;;;;;22.27;68.54;97964.34;1774822;79;25987;-84
2021/08/08 09:19:27;;;;;;;;;;;;;;;22.30;68.30;97964.48;1770886;80;24203;-84
2021/08/08 09:21:54;;;;;;;;;;;;;;;22.35;68.11;97966.88;1796420;79;20476;-84
2021/08/08 09:24:33;;;;;;;;;;;;;;;22.37;67.89;97966.16;1806180;78;24815;-84
2021/08/08 09:27:06;;;;;;;;;;;;;;;22.35;67.69;97974.05;1774058;79;22789;-84
2021/08/08 09:29:33;;;;;;;;;;;;;;;22.37;67.47;97973.33;1758089;79;26124;-84
2021/08/08 09:32:01;;;;;;;;;;;;;;;22.46;67.39;97980.20;1766192;79;24691;-84
2021/08/08 09:34:38;;;;;;;;;;;;;;;22.56;67.36;97980.68;1797372;78;20222;-84
2021/08/08 09:37:05;;;;;;;;;;;;;;;22.68;67.36;97983.64;1774740;79;24811;-85
2021/08/08 09:39:33;;;;;;;;;;;;;;;22.71;67.19;97980.09;1766180;80;21968;-86
2021/08/08 09:42:13;;;;;;;;;;;;;;;22.73;66.92;97987.91;1795853;79;26009;-86
2021/08/08 09:44:43;;;;;;;;;;;;;;;22.75;66.74;97988.52;1762981;79;23866;-88
2021/08/08 09:47:09;;;;;;;;;;;;;;;22.72;66.50;97987.59;1764397;79;20291;-87
2021/08/08 09:49:35;;;;;;;;;;;;;;;22.65;66.27;97999.52;1804973;79;20238;-86
2021/08/08 09:52:01;;;;;;;;;;;;;;;22.58;66.05;97998.66;1772284;80;22101;-86
2021/08/08 09:54:28;;;;;;;;;;;;;;;22.54;65.83;98006.20;1802478;78;25926;-86
2021/08/08 09:57:00;;;;;;;;;;;;;;;22.56;65.70;98007.35;1776329;79;24634;-86
2021/08/08 09:59:26;;;;;;;;;;;;;;;22.61;65.64;98011.59;1798992;78;20219;-88
2021/08/08 10:01:54;;;;;;;;;;;;;;;22.67;65.59;98013.49;1795346;79;20222;-88
2021/08/08 10:04:26;;;;;;;;;;;;;;;22.71;65.50;98013.92;1796735;79;22765;-88
2021/08/08 10:06:53;;;;;;;;;;;;;;;22.75;65.41;98016.03;1795316;79;25957;-88
2021/08/08 10:09:22;;;;;;;;;;;;;;;22.81;65.34;98013.09;1772031;80;24480;-89
2021/08/08 10:11:50;;;;;;;;;;;;;;;22.84;65.33;98009.55;1799462;78;20492;-88
2021/08/08 10:14:16;;;;;;;;;;;;;;;22.90;65.28;98008.77;1768339;79;24882;-86
2021/08/08 10:16:44;;;;;;;;;;;;;;;23.01;65.31;98007.41;1808982;78;21967;-86
2021/08/08 10:19:11;;;;;;;;;;;;;;;23.11;65.37;97995.03;1769751;79;26099;-88
2021/08/08 10:21:41;;;;;;;;;;;;;;;23.16;65.34;97989.41;1767416;79;24388;-89
2021/08/08 10:24:08;;;;;;;;;;;;;;;23.10;65.23;97982.19;1802289;77;20360;-89
2021/08/08 10:26:34;;;;;;;;;;;;;;;23.16;65.13;97991.25;1796112;79;24735;-90
2021/08/08 10:29:06;;;;;;;;;;;;;;;23.11;65.13;97980.34;1774590;79;22039;-90
2021/08/08 10:31:31;;;;;;;;;;;;;;;23.15;65.06;97987.76;1797402;79;26768;-89
2021/08/08 10:33:59;;;;;;;;;;;;;;;23.14;64.90;97987.95;1765806;79;24436;-89
2021/08/08 10:36:27;;;;;;;;;;;;;;;23.08;64.63;97989.55;1779133;79;20363;-89
2021/08/08 10:38:58;;;;;;;;;;;;;;;23.11;64.52;97989.69;1788600;79;24800;-89
2021/08/08 10:41:32;;;;;;;;;;;;;;;23.16;64.45;97989.92;1792055;77;21498;-87
2021/08/08 10:44:09;;;;;;;;;;;;;;;23.26;64.52;97995.72;1768488;79;25951;-88
2021/08/08 10:46:48;;;;;;;;;;;;;;;23.31;64.55;97995.94;1796332;78;24539;-88
2021/08/08 10:49:31;;;;;;;;;;;;;;;23.31;64.42;97990.09;1808781;79;20269;-88
2021/08/08 10:52:05;;;;;;;;;;;;;;;23.36;64.22;97996.17;1767560;80;24836;-88
2021/08/08 10:54:49;;;;;;;;;;;;;;;23.34;63.91;97991.56;1789546;78;22119;-87
2021/08/08 10:57:19;;;;;;;;;;;;;;;23.34;63.74;97992.89;1778933;79;26060;-88
2021/08/08 10:59:46;;;;;;;;;;;;;;;23.34;63.57;97991.56;1780883;78;24725;-88
2021/08/08 11:02:14;;;;;;;;;;;;;;;23.40;63.50;97988.09;1776935;80;20299;-87
2021/08/08 11:04:42;;;;;;;;;;;;;;;23.46;63.40;97993.98;1786169;78;25553;-88
2021/08/08 11:07:17;;;;;;;;;;;;;;;23.52;63.27;97991.85;1776397;79;22967;-88
2021/08/08 11:09:43;;;;;;;;;;;;;;;23.59;63.21;98002.57;1761885;79;26894;-88
2021/08/08 11:12:10;;;;;;;;;;;;;;;23.63;63.07;97995.80;1766926;80;20930;-88
2021/08/08 11:14:54;;;;;;;;;;;;;;;23.64;62.84;97990.26;1801049;79;20535;-88
2021/08/08 11:17:26;;;;;;;;;;;;;;;23.68;62.62;97990.16;1759305;79;20512;-88
2021/08/08 11:19:52;;;;;;;;;;;;;;;23.74;62.41;97992.03;1782556;79;22085;-88
2021/08/08 11:22:19;;;;;;;;;;;;;;;23.81;62.24;97997.91;1779958;79;25840;-87
2021/08/08 11:25:01;;;;;;;;;;;;;;;23.88;62.12;98004.94;1789612;79;24428;-88
2021/08/08 11:27:39;;;;;;;;;;;;;;;23.98;62.07;98002.69;1783637;79;20257;-87
2021/08/08 11:30:09;;;;;;;;;;;;;;;24.01;61.89;97998.77;1764743;79;24741;-89
2021/08/08 11:32:35;;;;;;;;;;;;;;;24.08;61.69;97997.77;1762979;79;21926;-88
2021/08/08 11:35:11;;;;;;;;;;;;;;;24.25;61.70;97988.87;1805130;79;26865;-89
2021/08/08 11:37:42;;;;;;;;;;;;;;;24.41;61.83;97992.48;1763729;80;24450;-90
2021/08/08 11:40:27;;;;;;;;;;;;;;;24.57;61.91;97996.09;1768971;79;20352;-89
2021/08/08 11:42:57;;;;;;;;;;;;;;;24.69;61.87;97992.27;1773392;79;24813;-89
2021/08/08 11:45:35;;;;;;;;;;;;;;;24.82;61.83;97990.11;1771757;80;22898;-90
2021/08/08 11:48:01;;;;;;;;;;;;;;;24.94;61.70;97995.14;1775103;80;26584;-90
2021/08/08 11:50:28;;;;;;;;;;;;;;;25.17;61.71;98005.39;1767840;80;24430;-89
2021/08/08 11:52:57;;;;;;;;;;;;;;;25.27;61.58;98002.58;1773199;79;20202;-89
2021/08/08 11:55:24;;;;;;;;;;;;;;;25.25;61.18;98004.67;1744286;80;24823;-89
2021/08/08 11:57:51;;;;;;;;;;;;;;;25.18;60.79;98010.55;1765432;80;22841;-88
2021/08/08 12:00:19;;;;;;;;;;;;;;;25.00;60.47;97997.81;1765245;80;25951;-86
2021/08/08 12:02:46;;;;;;;;;;;;;;;25.02;60.21;98008.84;1771308;80;24403;-89
2021/08/08 12:05:13;;;;;;;;;;;;;;;24.98;59.85;98008.44;1773343;79;20316;-89
2021/08/08 12:07:40;;;;;;;;;;;;;;;25.07;59.77;98003.67;1768697;80;25443;-89
2021/08/08 12:10:08;;;;;;;;;;;;;;;25.09;59.59;98008.31;1761528;80;20243;-86
2021/08/08 12:12:35;;;;;;;;;;;;;;;25.12;59.41;98003.86;1767437;80;25849;-86
2021/08/08 12:15:01;;;;;;;;;;;;;;;25.20;59.38;98002.31;1775390;80;24412;-85
2021/08/08 12:17:28;;;;;;;;;;;;;;;25.26;59.34;98008.97;1775610;80;20447;-86
2021/08/08 12:20:00;;;;;;;;;;;;;;;25.38;59.29;98008.62;1771980;79;24783;-86
2021/08/08 12:22:32;;;;;;;;;;;;;;;25.46;59.22;98017.47;1777404;79;22117;-86
2021/08/08 12:25:02;;;;;;;;;;;;;;;25.51;59.18;98014.47;1779040;80;26154;-85
2021/08/08 12:27:32;;;;;;;;;;;;;;;25.48;58.89;98019.41;1745333;81;24562;-86
2021/08/08 12:29:59;;;;;;;;;;;;;;;25.38;58.59;98026.55;1749627;81;20334;-86
2021/08/08 12:32:25;;;;;;;;;;;;;;;25.37;58.41;98019.03;1721490;81;25020;-85
2021/08/08 12:34:53;;;;;;;;;;;;;;;25.28;58.16;98027.00;1753401;79;22042;-86
2021/08/08 12:37:22;;;;;;;;;;;;;;;25.19;58.02;98024.77;1776012;80;25996;-89
2021/08/08 12:39:48;;;;;;;;;;;;;;;25.18;57.93;98033.83;1777260;78;24500;-89
2021/08/08 12:42:22;;;;;;;;;;;;;;;25.24;57.84;98035.67;1775582;78;20283;-89
2021/08/08 12:44:49;;;;;;;;;;;;;;;25.33;57.78;98034.41;1781844;78;24766;-89
2021/08/08 12:47:23;;;;;;;;;;;;;;;25.45;57.66;98034.58;1777805;79;21593;-89
2021/08/08 12:49:52;;;;;;;;;;;;;;;25.43;57.48;98039.63;1774591;79;25435;-89
2021/08/08 12:52:18;;;;;;;;;;;;;;;25.28;57.16;98043.08;1778887;80;25216;-89
2021/08/08 12:54:44;;;;;;;;;;;;;;;25.20;57.06;98037.93;1779870;80;20334;-89
2021/08/08 12:57:12;;;;;;;;;;;;;;;25.20;57.08;98034.45;1750237;80;24861;-88